createdAt,value
2023-04-25T00:06:13.213Z,6.3
2023-04-25T00:25:24.674Z,6
2023-04-25T00:44:35.638Z,6
2023-04-25T01:03:48.143Z,6.1
2023-04-25T01:22:59.395Z,6.2
2023-04-25T01:42:10.833Z,6.3
2023-04-25T02:01:24.048Z,6.4
2023-04-25T02:20:35.435Z,6.3
2023-04-25T02:39:46.505Z,6.3
2023-04-25T02:59:00.446Z,6.4
2023-04-25T03:18:08.049Z,6.2
2023-04-25T03:37:20.554Z,6.7
2023-04-25T03:56:34.534Z,6.6
2023-04-25T04:15:46.017Z,6.6
2023-04-25T04:34:55.253Z,6.3
2023-04-25T04:54:12.017Z,6.7
2023-04-25T05:13:23.165Z,6.8
2023-04-25T05:32:35.723Z,7.1
2023-04-25T05:51:43.820Z,7
2023-04-25T06:10:57.942Z,7.2
2023-04-25T06:30:10.510Z,7
2023-04-25T06:49:18.306Z,6.2
2023-04-25T07:08:34.626Z,7.5
2023-04-25T07:27:49.717Z,8
2023-04-25T07:47:04.516Z,10.9
2023-04-25T08:06:08.041Z,8.3
2023-04-25T08:25:21.818Z,10.6
2023-04-25T08:44:32.442Z,9.4
2023-04-25T09:03:38.498Z,8.1
2023-04-25T09:22:49.732Z,8.7
2023-04-25T09:42:06.857Z,9.9
2023-04-25T10:01:15.109Z,10
2023-04-25T10:20:26.108Z,9.5
2023-04-25T10:39:39.055Z,9.8
2023-04-25T10:58:53.942Z,9.7
2023-04-25T11:18:02.301Z,9.4
2023-04-25T11:37:21.626Z,10.9
2023-04-25T11:56:27.548Z,9.4
2023-04-25T12:15:41.636Z,10.5
2023-04-25T12:34:59.138Z,10.9
2023-04-25T12:54:06.373Z,11
2023-04-25T13:13:17.460Z,10.3
2023-04-25T13:32:25.549Z,10.6
2023-04-25T13:51:40.369Z,11.9
2023-04-25T14:10:44.001Z,10.1
2023-04-25T14:30:00.663Z,10.9
2023-04-25T14:49:11.066Z,11.2
2023-04-25T15:08:22.523Z,10.6
2023-04-25T15:27:25.823Z,8.6
2023-04-25T15:46:38.870Z,8.7
2023-04-25T16:05:48.758Z,9.7
2023-04-25T16:25:00.558Z,9.9
2023-04-25T16:44:09.817Z,9.4
2023-04-25T17:03:25.233Z,9.6
2023-04-25T17:22:36.412Z,9.9
2023-04-25T17:41:48.435Z,9.9
2023-04-25T18:00:59.180Z,9.6
2023-04-25T18:20:06.297Z,8.7
2023-04-25T18:39:22.255Z,8.6
2023-04-25T18:58:29.013Z,8.7
2023-04-25T19:17:39.106Z,8.4
2023-04-25T19:36:49.838Z,8.5
2023-04-25T19:56:00.490Z,8.4
2023-04-25T20:15:12.214Z,8.3
2023-04-25T20:34:25.155Z,8.1
2023-04-25T20:53:32.484Z,7.6
2023-04-25T21:12:42.428Z,7.4
2023-04-25T21:31:51.265Z,6.1
2023-04-25T21:51:01.273Z,5.7
2023-04-25T22:10:08.055Z,5.3
2023-04-25T22:29:18.434Z,5
2023-04-25T22:48:28.366Z,4.5
2023-04-25T23:07:39.963Z,4.7
2023-04-25T23:26:52.142Z,5
2023-04-25T23:46:00.334Z,4.4
